createdAt,value
2023-04-05T00:02:19.501Z,5.00
2023-04-05T00:04:52.264Z,4.83
2023-04-05T00:07:21.468Z,4.43
2023-04-05T00:09:50.161Z,5.13
2023-04-05T00:12:18.039Z,5.30
2023-04-05T00:14:47.271Z,5.07
2023-04-05T00:17:15.326Z,5.70
2023-04-05T00:19:45.053Z,5.43
2023-04-05T00:22:12.875Z,5.50
2023-04-05T00:24:43.456Z,4.87
2023-04-05T00:27:11.486Z,5.20
2023-04-05T00:29:39.253Z,5.50
2023-04-05T00:32:08.709Z,5.23
2023-04-05T00:34:36.986Z,5.60
2023-04-05T00:37:04.812Z,6.03
2023-04-05T00:39:32.578Z,5.27
2023-04-05T00:42:01.122Z,4.93
2023-04-05T00:44:29.017Z,4.70
2023-04-05T00:46:57.207Z,5.10
2023-04-05T00:49:26.421Z,5.50
2023-04-05T00:51:54.291Z,5.00
2023-04-05T00:54:22.102Z,4.87
2023-04-05T00:56:53.098Z,4.23
2023-04-05T00:59:21.295Z,4.90
2023-04-05T01:01:55.117Z,4.93
2023-04-05T01:04:26.201Z,5.30
2023-04-05T01:07:08.701Z,5.50
2023-04-05T01:09:46.742Z,5.20
2023-04-05T01:12:22.086Z,4.83
2023-04-05T01:14:52.565Z,4.33
2023-04-05T01:17:22.681Z,5.00
2023-04-05T01:19:53.455Z,4.50
2023-04-05T01:23:14.668Z,4.60
2023-04-05T01:26:05.906Z,4.60
2023-04-05T01:28:50.796Z,5.00
2023-04-05T01:31:26.385Z,4.27
2023-04-05T01:33:58.408Z,5.60
2023-04-05T01:36:32.686Z,4.30
2023-04-05T01:39:03.556Z,4.57
2023-04-05T01:41:31.624Z,4.50
2023-04-05T01:43:59.435Z,4.57
2023-04-05T01:46:28.588Z,4.40
2023-04-05T01:48:56.448Z,4.40
2023-04-05T01:51:24.264Z,4.67
2023-04-05T01:53:52.050Z,5.33
2023-04-05T01:56:19.846Z,4.47
2023-04-05T01:58:47.652Z,4.60
2023-04-05T02:01:15.536Z,5.07
2023-04-05T02:03:44.799Z,4.70
2023-04-05T02:06:12.645Z,5.10
2023-04-05T02:08:40.530Z,4.93
2023-04-05T02:11:08.295Z,5.43
2023-04-05T02:13:36.270Z,4.83
2023-04-05T02:16:04.166Z,5.20
2023-04-05T02:18:32.163Z,5.10
2023-04-05T02:21:05.267Z,4.47
2023-04-05T02:23:33.889Z,5.10
2023-04-05T02:26:02.233Z,5.80
2023-04-05T02:28:30.146Z,4.90
2023-04-05T02:30:57.948Z,5.07
2023-04-05T02:33:25.848Z,4.43
2023-04-05T02:35:54.428Z,4.40
2023-04-05T02:38:23.593Z,4.20
2023-04-05T02:40:51.444Z,4.17
2023-04-05T02:43:19.256Z,4.30
2023-04-05T02:45:47.252Z,4.83
2023-04-05T02:48:15.233Z,4.50
2023-04-05T02:50:43.278Z,4.33
2023-04-05T02:53:11.210Z,4.40
2023-04-05T02:55:41.973Z,4.50
2023-04-05T02:58:10.083Z,5.20
2023-04-05T03:00:38.377Z,5.40
2023-04-05T03:03:06.427Z,5.60
2023-04-05T03:05:34.243Z,5.13
2023-04-05T03:08:02.332Z,5.50
2023-04-05T03:10:34.900Z,5.67
2023-04-05T03:13:04.107Z,5.10
2023-04-05T03:15:33.560Z,5.43
2023-04-05T03:18:01.336Z,4.77
2023-04-05T03:20:29.216Z,5.20
2023-04-05T03:22:57.695Z,5.50
2023-04-05T03:25:25.947Z,5.33
2023-04-05T03:27:53.872Z,4.80
2023-04-05T03:30:23.309Z,4.40
2023-04-05T03:32:51.254Z,5.37
2023-04-05T03:35:19.213Z,4.83
2023-04-05T03:37:47.103Z,4.20
2023-04-05T03:40:15.106Z,5.17
2023-04-05T03:42:44.402Z,4.97
2023-04-05T03:45:12.639Z,4.10
2023-04-05T03:47:41.858Z,4.80
2023-04-05T03:50:10.456Z,4.63
2023-04-05T03:52:38.269Z,4.40
2023-04-05T03:55:06.860Z,4.63
2023-04-05T03:57:34.750Z,5.87
2023-04-05T04:00:03.955Z,4.50
2023-04-05T04:02:31.878Z,4.87
2023-04-05T04:05:01.160Z,4.93
2023-04-05T04:07:28.959Z,4.43
2023-04-05T04:09:56.888Z,4.90
2023-04-05T04:12:24.723Z,5.00
2023-04-05T04:14:52.525Z,5.10
2023-04-05T04:17:28.127Z,5.17
2023-04-05T04:19:56.168Z,4.60
2023-04-05T04:22:32.917Z,5.43
2023-04-05T04:25:02.915Z,5.13
2023-04-05T04:27:30.808Z,5.50
2023-04-05T04:30:01.834Z,5.40
2023-04-05T04:32:47.725Z,6.97
2023-04-05T04:35:18.153Z,5.03
2023-04-05T04:37:53.087Z,5.90
2023-04-05T04:40:21.240Z,5.10
2023-04-05T04:42:49.610Z,5.70
2023-04-05T04:45:18.700Z,5.57
2023-04-05T04:47:48.073Z,5.80
2023-04-05T04:50:16.800Z,5.60
2023-04-05T04:52:44.596Z,5.57
2023-04-05T04:55:14.364Z,5.40
2023-04-05T04:57:42.529Z,5.90
2023-04-05T05:00:15.526Z,5.73
2023-04-05T05:02:44.056Z,5.83
2023-04-05T05:05:12.610Z,5.70
2023-04-05T05:07:42.502Z,6.00
2023-04-05T05:10:11.466Z,5.93
2023-04-05T05:12:40.578Z,6.23
2023-04-05T05:15:09.820Z,5.73
2023-04-05T05:17:38.961Z,4.93
2023-04-05T05:20:09.531Z,5.40
2023-04-05T05:22:37.871Z,5.80
2023-04-05T05:25:07.026Z,5.47
2023-04-05T05:27:34.917Z,6.23
2023-04-05T05:30:04.256Z,6.40
2023-04-05T05:32:32.193Z,6.00
2023-04-05T05:34:59.976Z,5.37
2023-04-05T05:37:31.551Z,5.90
2023-04-05T05:39:59.899Z,6.57
2023-04-05T05:42:28.118Z,5.73
2023-04-05T05:44:55.942Z,6.40
2023-04-05T05:47:25.142Z,6.40
2023-04-05T05:49:52.938Z,6.07
2023-04-05T05:52:21.136Z,6.80
2023-04-05T05:54:49.130Z,6.23
2023-04-05T05:57:16.993Z,6.70
2023-04-05T05:59:44.755Z,6.47
2023-04-05T06:02:13.489Z,6.67
2023-04-05T06:04:42.801Z,6.77
2023-04-05T06:07:11.122Z,7.00
2023-04-05T06:09:38.974Z,6.00
2023-04-05T06:12:07.145Z,7.43
2023-04-05T06:14:34.950Z,7.40
2023-04-05T06:17:02.723Z,7.23
2023-04-05T06:19:30.569Z,7.27
2023-04-05T06:22:00.786Z,6.80
2023-04-05T06:24:31.771Z,6.60
2023-04-05T06:26:59.640Z,6.10
2023-04-05T06:29:27.445Z,6.63
2023-04-05T06:31:56.450Z,6.73
2023-04-05T06:34:24.298Z,7.97
2023-04-05T06:36:52.074Z,7.80
2023-04-05T06:39:21.637Z,7.00
2023-04-05T06:41:49.383Z,6.10
2023-04-05T06:44:17.169Z,7.57
2023-04-05T06:46:44.947Z,6.23
2023-04-05T06:49:12.728Z,5.90
2023-04-05T06:51:40.519Z,6.37
2023-04-05T06:54:08.274Z,6.20
2023-04-05T06:56:37.354Z,7.27
2023-04-05T06:59:05.694Z,5.70
2023-04-05T07:01:33.762Z,5.90
2023-04-05T07:04:01.688Z,5.93
2023-04-05T07:06:29.500Z,5.93
2023-04-05T07:08:57.294Z,7.60
2023-04-05T07:11:25.085Z,7.93
2023-04-05T07:13:54.244Z,8.60
2023-04-05T07:16:23.746Z,8.13
2023-04-05T07:18:51.791Z,8.73
2023-04-05T07:21:19.839Z,9.50
2023-04-05T07:23:47.600Z,8.90
2023-04-05T07:26:15.409Z,8.63
2023-04-05T07:28:43.200Z,9.30
2023-04-05T07:31:12.260Z,8.67
2023-04-05T07:33:40.040Z,9.20
2023-04-05T07:36:08.727Z,8.60
2023-04-05T07:38:36.619Z,10.03
2023-04-05T07:41:04.440Z,8.70
2023-04-05T07:43:32.223Z,8.87
2023-04-05T07:46:03.545Z,9.27
2023-04-05T07:48:32.989Z,8.27
2023-04-05T07:51:06.036Z,7.80
2023-04-05T07:53:34.302Z,7.50
2023-04-05T07:56:05.121Z,7.43
2023-04-05T07:58:33.264Z,7.53
2023-04-05T08:01:01.761Z,6.70
2023-04-05T08:03:30.532Z,7.00
2023-04-05T08:05:59.803Z,7.07
2023-04-05T08:08:27.737Z,6.73
2023-04-05T08:10:55.730Z,7.60
2023-04-05T08:13:23.624Z,8.03
2023-04-05T08:15:51.572Z,8.93
2023-04-05T08:18:19.441Z,7.80
2023-04-05T08:20:52.354Z,7.17
2023-04-05T08:23:21.493Z,6.90
2023-04-05T08:25:49.439Z,7.10
2023-04-05T08:28:17.218Z,6.80
2023-04-05T08:30:45.311Z,6.47
2023-04-05T08:33:13.252Z,6.27
2023-04-05T08:35:42.993Z,6.07
2023-04-05T08:38:12.199Z,6.53
2023-04-05T08:40:43.525Z,7.00
2023-04-05T08:43:14.825Z,6.30
2023-04-05T08:45:48.494Z,6.53
2023-04-05T08:48:16.574Z,6.63
2023-04-05T08:50:50.812Z,6.60
2023-04-05T08:53:18.796Z,6.30
2023-04-05T08:55:51.937Z,6.60
2023-04-05T08:58:23.222Z,7.13
2023-04-05T09:00:51.868Z,6.50
2023-04-05T09:03:23.485Z,7.17
2023-04-05T09:05:53.436Z,6.10
2023-04-05T09:08:22.266Z,6.20
2023-04-05T09:10:52.438Z,6.50
2023-04-05T09:13:21.129Z,7.63
2023-04-05T09:15:49.274Z,5.90
2023-04-05T09:18:26.355Z,5.80
2023-04-05T09:20:58.161Z,6.23
2023-04-05T09:23:26.172Z,5.73
2023-04-05T09:25:55.292Z,6.07
2023-04-05T09:28:23.084Z,5.73
2023-04-05T09:30:50.908Z,6.50
2023-04-05T09:33:20.950Z,5.40
2023-04-05T09:35:51.923Z,6.07
2023-04-05T09:38:19.761Z,6.00
2023-04-05T09:40:48.781Z,6.27
2023-04-05T09:43:37.858Z,6.90
2023-04-05T09:46:05.792Z,5.73
2023-04-05T09:48:47.474Z,5.57
2023-04-05T09:51:16.085Z,5.70
2023-04-05T09:53:59.234Z,6.90
2023-04-05T09:56:27.300Z,5.50
2023-04-05T09:59:00.473Z,6.67
2023-04-05T10:01:29.732Z,5.97
2023-04-05T10:03:59.859Z,5.50
2023-04-05T10:06:38.113Z,6.40
2023-04-05T10:09:06.683Z,6.10
2023-04-05T10:11:35.553Z,6.13
2023-04-05T10:14:06.035Z,5.67
2023-04-05T10:16:46.283Z,6.00
2023-04-05T10:19:19.159Z,5.87
2023-04-05T10:21:47.635Z,6.27
2023-04-05T10:24:24.544Z,6.03
2023-04-05T10:27:05.325Z,6.60
2023-04-05T10:29:44.766Z,5.97
2023-04-05T10:32:19.298Z,6.13
2023-04-05T10:34:57.214Z,6.07
2023-04-05T10:37:36.958Z,6.13
2023-04-05T10:40:09.305Z,6.43
2023-04-05T10:42:42.978Z,6.07
2023-04-05T10:45:15.575Z,5.77
2023-04-05T10:47:48.019Z,5.80
2023-04-05T10:50:22.618Z,6.07
2023-04-05T10:52:52.463Z,6.20
2023-04-05T10:55:20.999Z,5.97
2023-04-05T10:57:50.954Z,6.33
2023-04-05T11:00:20.824Z,5.73
2023-04-05T11:02:54.653Z,6.33
2023-04-05T11:05:35.813Z,5.90
2023-04-05T11:08:08.175Z,6.17
2023-04-05T11:10:37.933Z,6.13
2023-04-05T11:13:08.284Z,7.13
2023-04-05T11:15:37.912Z,6.67
2023-04-05T11:18:11.421Z,6.07
2023-04-05T11:20:44.636Z,6.90
2023-04-05T11:23:13.436Z,6.50
2023-04-05T11:25:46.530Z,6.67
2023-04-05T11:28:25.094Z,6.00
2023-04-05T11:30:57.099Z,6.17
2023-04-05T11:33:38.204Z,6.50
2023-04-05T11:36:06.862Z,6.60
2023-04-05T11:38:34.864Z,6.50
2023-04-05T11:41:17.386Z,7.23
2023-04-05T11:43:47.347Z,6.40
2023-04-05T11:46:16.586Z,6.20
2023-04-05T11:48:44.513Z,6.33
2023-04-05T11:51:12.373Z,6.50
2023-04-05T11:53:40.185Z,6.13
2023-04-05T11:56:10.045Z,7.10
2023-04-05T11:58:38.045Z,6.20
2023-04-05T12:01:07.541Z,6.80
2023-04-05T12:03:37.857Z,5.53
2023-04-05T12:06:07.745Z,6.30
2023-04-05T12:08:42.547Z,6.40
2023-04-05T12:11:11.555Z,6.20
2023-04-05T12:13:40.174Z,7.00
2023-04-05T12:16:09.939Z,6.20
2023-04-05T12:18:39.557Z,6.50
2023-04-05T12:21:09.223Z,6.50
2023-04-05T12:23:38.273Z,6.43
2023-04-05T12:26:08.085Z,6.60
2023-04-05T12:28:52.651Z,7.37
2023-04-05T12:31:38.931Z,6.30
2023-04-05T12:34:09.230Z,8.37
2023-04-05T12:36:38.744Z,6.43
2023-04-05T12:39:08.387Z,6.43
2023-04-05T12:41:37.322Z,6.80
2023-04-05T12:44:06.685Z,6.70
2023-04-05T12:46:41.478Z,5.90
2023-04-05T12:49:13.549Z,7.20
2023-04-05T12:51:44.102Z,6.77
2023-04-05T12:54:14.003Z,6.53
2023-04-05T12:56:42.001Z,6.27
2023-04-05T12:59:10.241Z,6.73
2023-04-05T13:01:38.699Z,6.20
2023-04-05T13:04:15.613Z,6.73
2023-04-05T13:06:47.252Z,6.47
2023-04-05T13:09:15.795Z,6.77
2023-04-05T13:11:43.603Z,6.73
2023-04-05T13:14:11.530Z,6.57
2023-04-05T13:16:39.335Z,6.50
2023-04-05T13:19:07.160Z,6.50
2023-04-05T13:21:34.901Z,6.40
2023-04-05T13:24:04.004Z,6.13
2023-04-05T13:26:31.872Z,6.27
2023-04-05T13:28:59.696Z,6.00
2023-04-05T13:31:28.052Z,6.97
2023-04-05T13:33:55.890Z,6.60
2023-04-05T13:36:23.654Z,7.00
2023-04-05T13:38:51.426Z,5.67
2023-04-05T13:41:21.182Z,5.87
2023-04-05T13:43:48.956Z,5.90
2023-04-05T13:46:16.851Z,6.30
2023-04-05T13:48:44.651Z,6.07
2023-04-05T13:51:12.523Z,6.57
2023-04-05T13:53:40.394Z,7.10
2023-04-05T13:56:08.682Z,6.40
2023-04-05T13:58:37.754Z,6.10
2023-04-05T14:01:05.888Z,6.33
2023-04-05T14:03:33.843Z,6.70
2023-04-05T14:06:01.742Z,6.70
2023-04-05T14:08:29.513Z,7.17
2023-04-05T14:10:57.334Z,6.07
2023-04-05T14:13:25.274Z,6.23
2023-04-05T14:15:54.375Z,6.27
2023-04-05T14:18:22.178Z,6.23
2023-04-05T14:20:49.937Z,6.03
2023-04-05T14:23:17.689Z,6.13
2023-04-05T14:25:45.522Z,5.53
2023-04-05T14:28:13.338Z,7.43
2023-04-05T14:30:41.286Z,5.77
2023-04-05T14:33:10.549Z,7.30
2023-04-05T14:35:38.436Z,6.60
2023-04-05T14:38:06.253Z,6.40
2023-04-05T14:40:34.082Z,6.63
2023-04-05T14:43:01.889Z,6.50
2023-04-05T14:45:29.874Z,6.40
2023-04-05T14:47:57.741Z,5.70
2023-04-05T14:50:27.397Z,6.93
2023-04-05T14:52:55.311Z,6.67
2023-04-05T14:55:23.067Z,5.87
2023-04-05T14:57:51.034Z,6.70
2023-04-05T15:00:19.665Z,6.67
2023-04-05T15:02:47.629Z,5.40
2023-04-05T15:05:15.506Z,6.47
2023-04-05T15:07:44.642Z,6.57
2023-04-05T15:10:12.579Z,6.47
2023-04-05T15:12:40.373Z,6.33
2023-04-05T15:15:09.700Z,6.07
2023-04-05T15:17:37.499Z,6.07
2023-04-05T15:20:06.039Z,7.07
2023-04-05T15:22:35.601Z,6.47
2023-04-05T15:25:05.731Z,6.03
2023-04-05T15:27:33.500Z,5.80
2023-04-05T15:30:01.335Z,6.40
2023-04-05T15:32:30.053Z,6.50
2023-04-05T15:34:57.936Z,6.50
2023-04-05T15:37:25.863Z,5.70
2023-04-05T15:39:53.670Z,6.30
2023-04-05T15:42:22.878Z,5.67
2023-04-05T15:44:51.060Z,5.87
2023-04-05T15:47:19.208Z,5.93
2023-04-05T15:49:48.530Z,5.20
2023-04-05T15:52:16.411Z,6.20
2023-04-05T15:54:44.278Z,5.20
2023-04-05T15:57:12.062Z,4.87
2023-04-05T15:59:41.272Z,5.40
2023-04-05T16:02:09.796Z,5.53
2023-04-05T16:04:39.238Z,5.87
2023-04-05T16:07:07.608Z,5.00
2023-04-05T16:09:35.426Z,5.23
2023-04-05T16:12:03.535Z,5.30
2023-04-05T16:14:31.473Z,5.10
2023-04-05T16:17:02.949Z,4.70
2023-04-05T16:19:31.457Z,4.70
2023-04-05T16:22:00.044Z,3.80
2023-04-05T16:24:28.215Z,3.87
2023-04-05T16:26:56.848Z,3.70
2023-04-05T16:29:24.630Z,4.53
2023-04-05T16:31:52.471Z,4.20
2023-04-05T16:34:21.956Z,3.97
2023-04-05T16:36:49.718Z,3.83
2023-04-05T16:39:17.525Z,3.87
2023-04-05T16:41:45.322Z,4.27
2023-04-05T16:44:13.094Z,3.80
2023-04-05T16:46:41.087Z,4.33
2023-04-05T16:49:08.874Z,3.70
2023-04-05T16:51:38.047Z,4.00
2023-04-05T16:54:05.948Z,3.83
2023-04-05T16:56:33.753Z,4.10
2023-04-05T16:59:02.253Z,3.67
2023-04-05T17:01:31.682Z,4.40
2023-04-05T17:04:00.044Z,3.47
2023-04-05T17:06:28.614Z,3.60
2023-04-05T17:08:57.758Z,3.80
2023-04-05T17:11:28.224Z,4.00
2023-04-05T17:13:56.077Z,4.10
2023-04-05T17:16:24.037Z,4.03
2023-04-05T17:18:52.007Z,3.30
2023-04-05T17:21:20.100Z,4.00
2023-04-05T17:23:47.997Z,3.90
2023-04-05T17:26:17.110Z,3.30
2023-04-05T17:28:44.913Z,3.40
2023-04-05T17:31:12.713Z,3.10
2023-04-05T17:33:40.705Z,3.63
2023-04-05T17:36:08.846Z,3.70
2023-04-05T17:38:36.617Z,3.60
2023-04-05T17:41:04.615Z,3.60
2023-04-05T17:43:33.727Z,3.10
2023-04-05T17:46:01.818Z,3.60
2023-04-05T17:48:29.866Z,4.23
2023-04-05T17:50:57.816Z,4.10
2023-04-05T17:53:25.686Z,3.70
2023-04-05T17:55:56.510Z,4.27
2023-04-05T17:58:24.305Z,4.60
2023-04-05T18:00:53.513Z,4.80
2023-04-05T18:03:21.663Z,3.90
2023-04-05T18:05:52.190Z,4.33
2023-04-05T18:08:20.325Z,4.53
2023-04-05T18:10:48.166Z,5.10
2023-04-05T18:13:16.426Z,6.27
2023-04-05T18:15:44.211Z,5.60
2023-04-05T18:18:13.381Z,5.10
2023-04-05T18:20:41.443Z,6.30
2023-04-05T18:23:09.280Z,7.70
2023-04-05T18:25:37.404Z,11.23
2023-04-05T18:28:19.409Z,11.03
2023-04-05T18:30:51.102Z,8.97
2023-04-05T18:33:22.290Z,6.33
2023-04-05T18:35:50.792Z,6.67
2023-04-05T18:38:18.835Z,5.87
2023-04-05T18:40:46.736Z,6.47
2023-04-05T18:43:14.888Z,6.30
2023-04-05T18:45:42.740Z,6.23
2023-04-05T18:48:11.459Z,6.10
2023-04-05T18:50:40.744Z,6.13
2023-04-05T18:53:09.354Z,4.67
2023-04-05T18:55:37.451Z,5.80
2023-04-05T18:58:05.528Z,6.23
2023-04-05T19:00:33.323Z,5.90
2023-04-05T19:03:01.771Z,5.90
2023-04-05T19:05:29.825Z,6.10
2023-04-05T19:07:58.961Z,5.60
2023-04-05T19:10:26.753Z,5.80
2023-04-05T19:12:54.557Z,5.93
2023-04-05T19:15:22.322Z,5.80
2023-04-05T19:17:50.240Z,5.60
2023-04-05T19:20:18.209Z,5.67
2023-04-05T19:22:45.960Z,5.77
2023-04-05T19:25:15.388Z,6.13
2023-04-05T19:27:43.490Z,4.80
2023-04-05T19:30:12.007Z,4.70
2023-04-05T19:32:40.044Z,5.20
2023-04-05T19:35:09.841Z,4.57
2023-04-05T19:37:37.734Z,5.03
2023-04-05T19:40:06.287Z,4.90
2023-04-05T19:42:35.524Z,4.70
2023-04-05T19:45:03.385Z,5.50
2023-04-05T19:47:31.480Z,5.63
2023-04-05T19:50:00.893Z,5.50
2023-04-05T19:52:36.203Z,5.17
2023-04-05T19:55:26.984Z,4.97
2023-04-05T19:57:56.839Z,4.70
2023-04-05T20:00:36.568Z,4.60
2023-04-05T20:03:08.946Z,4.63
2023-04-05T20:05:59.093Z,4.83
2023-04-05T20:08:26.990Z,5.20
2023-04-05T20:10:54.816Z,5.13
2023-04-05T20:13:23.970Z,4.07
2023-04-05T20:15:52.524Z,5.60
2023-04-05T20:18:24.210Z,5.03
2023-04-05T20:20:53.361Z,4.63
2023-04-05T20:23:23.136Z,5.30
2023-04-05T20:25:52.103Z,5.30
2023-04-05T20:28:33.431Z,5.27
2023-04-05T20:31:01.585Z,5.10
2023-04-05T20:33:57.658Z,4.80
2023-04-05T20:36:32.445Z,5.07
2023-04-05T20:39:01.252Z,5.33
2023-04-05T20:41:29.856Z,5.60
2023-04-05T20:43:59.347Z,5.07
2023-04-05T20:46:27.606Z,4.80
2023-04-05T20:48:57.222Z,4.93
2023-04-05T20:51:25.558Z,5.57
2023-04-05T20:53:53.381Z,5.03
2023-04-05T20:56:21.139Z,5.03
2023-04-05T20:58:48.994Z,5.10
2023-04-05T21:01:18.181Z,5.37
2023-04-05T21:03:46.142Z,5.07
2023-04-05T21:06:14.033Z,4.93
2023-04-05T21:08:42.147Z,5.70
2023-04-05T21:11:11.756Z,5.30
2023-04-05T21:13:41.211Z,4.50
2023-04-05T21:16:09.455Z,4.50
2023-04-05T21:18:38.716Z,4.67
2023-04-05T21:21:06.650Z,4.60
2023-04-05T21:23:34.924Z,3.60
2023-04-05T21:26:04.176Z,3.80
2023-04-05T21:28:32.085Z,4.90
2023-04-05T21:30:59.887Z,5.40
2023-04-05T21:33:27.708Z,6.97
2023-04-05T21:35:56.943Z,7.37
2023-04-05T21:38:24.774Z,7.30
2023-04-05T21:40:52.579Z,7.03
2023-04-05T21:43:20.364Z,7.37
2023-04-05T21:45:48.182Z,7.33
2023-04-05T21:48:15.976Z,7.00
2023-04-05T21:50:43.751Z,6.30
2023-04-05T21:53:12.900Z,6.27
2023-04-05T21:55:40.774Z,6.67
2023-04-05T21:58:08.569Z,6.83
2023-04-05T22:00:36.728Z,6.20
2023-04-05T22:03:04.720Z,6.90
2023-04-05T22:05:38.177Z,7.57
2023-04-05T22:08:07.895Z,6.50
2023-04-05T22:10:37.888Z,6.30
2023-04-05T22:13:06.012Z,5.80
2023-04-05T22:15:34.394Z,5.60
2023-04-05T22:18:02.730Z,5.70
2023-04-05T22:20:31.191Z,6.37
2023-04-05T22:22:59.019Z,5.80
2023-04-05T22:25:27.055Z,5.93
2023-04-05T22:27:59.865Z,6.23
2023-04-05T22:30:28.531Z,6.80
2023-04-05T22:32:56.555Z,6.47
2023-04-05T22:35:24.464Z,6.17
2023-04-05T22:37:52.289Z,5.93
2023-04-05T22:40:26.144Z,5.93
2023-04-05T22:42:53.911Z,6.60
2023-04-05T22:45:23.541Z,5.70
2023-04-05T22:47:51.617Z,5.87
2023-04-05T22:50:19.661Z,5.43
2023-04-05T22:52:47.460Z,6.00
2023-04-05T22:55:15.555Z,5.40
2023-04-05T22:57:43.347Z,5.67
2023-04-05T23:00:12.697Z,5.10
2023-04-05T23:02:41.913Z,6.17
2023-04-05T23:05:10.466Z,5.60
2023-04-05T23:07:38.255Z,5.40
2023-04-05T23:10:06.657Z,5.60
2023-04-05T23:12:34.435Z,6.40
2023-04-05T23:15:02.174Z,6.07
2023-04-05T23:17:30.290Z,5.67
2023-04-05T23:19:59.447Z,6.50
2023-04-05T23:22:27.387Z,5.10
2023-04-05T23:24:55.200Z,5.90
2023-04-05T23:27:22.964Z,5.90
2023-04-05T23:29:50.707Z,5.90
2023-04-05T23:32:18.462Z,5.13
2023-04-05T23:34:46.249Z,4.90
2023-04-05T23:37:15.595Z,5.43
2023-04-05T23:39:43.599Z,5.90
2023-04-05T23:42:11.504Z,4.87
2023-04-05T23:44:39.613Z,4.80
2023-04-05T23:47:07.372Z,4.90
2023-04-05T23:49:35.165Z,5.00
2023-04-05T23:52:02.901Z,4.77
2023-04-05T23:54:32.134Z,5.50
2023-04-05T23:56:59.907Z,5.57
2023-04-05T23:59:27.722Z,5.00
